Time;durP1;ratioP1;P1;durP2;ratioP2;P2;SDS_P1;SDS_P2;PMS_P1;PMS_P2;Temp;Humidity;BMP_temperature;BMP_pressure;BME280_temperature;BME280_humidity;BME280_pressure;Samples;Min_cycle;Max_cycle;Signal;HPM_P1;HPM_P2
2021/06/04 00:02:09;;;;;;;15.15;11.55;;;20.40;99.90;;;;;;5053714;28;20175;-87
2021/06/04 00:04:35;;;;;;;14.15;11.80;;;20.30;99.90;;;;;;5035905;28;20516;-85
2021/06/04 00:07:01;;;;;;;21.08;11.93;;;20.30;99.90;;;;;;5034731;28;20201;-86
2021/06/04 00:09:27;;;;;;;16.95;11.75;;;20.30;99.90;;;;;;5045965;28;20254;-86
2021/06/04 00:11:57;;;;;;;18.15;12.02;;;20.30;99.90;;;;;;5036085;28;20206;-86
2021/06/04 00:14:28;;;;;;;18.20;12.55;;;20.20;99.90;;;;;;5049875;28;20214;-87
2021/06/04 00:17:00;;;;;;;15.30;10.63;;;20.10;99.90;;;;;;5038026;28;20156;-86
2021/06/04 00:19:31;;;;;;;14.38;11.85;;;20.00;99.90;;;;;;5018050;28;20226;-87
2021/06/04 00:22:21;;;;;;;20.83;10.98;;;19.90;99.90;;;;;;5018280;28;20149;-87
2021/06/04 00:24:50;;;;;;;14.30;11.25;;;19.90;99.90;;;;;;5033317;28;20504;-85
2021/06/04 00:27:16;;;;;;;12.35;10.88;;;19.90;99.90;;;;;;5057587;28;20191;-84
2021/06/04 00:29:42;;;;;;;13.32;10.82;;;19.80;99.90;;;;;;5051407;28;20605;-84
2021/06/04 00:32:09;;;;;;;15.75;10.30;;;19.70;99.90;;;;;;5037576;28;20515;-85
2021/06/04 00:34:35;;;;;;;15.50;11.27;;;19.60;99.90;;;;;;5042427;28;20171;-85
2021/06/04 00:37:00;;;;;;;15.10;10.98;;;19.60;99.90;;;;;;5057183;28;20217;-85
2021/06/04 00:39:30;;;;;;;20.58;11.05;;;19.60;99.90;;;;;;5055485;28;20191;-85
2021/06/04 00:42:15;;;;;;;27.48;12.07;;;19.60;99.90;;;;;;5057361;28;20213;-85
2021/06/04 00:44:41;;;;;;;15.38;11.27;;;19.50;99.90;;;;;;5051359;28;20504;-84
2021/06/04 00:47:07;;;;;;;19.42;10.98;;;19.50;99.90;;;;;;5056035;28;20196;-83
2021/06/04 00:49:35;;;;;;;13.57;11.13;;;19.30;99.90;;;;;;5037114;28;20174;-85
2021/06/04 00:52:09;;;;;;;15.13;11.02;;;19.30;99.90;;;;;;5036997;28;20160;-85
2021/06/04 00:54:36;;;;;;;16.88;10.50;;;19.20;99.90;;;;;;5041974;28;20173;-85
2021/06/04 00:57:03;;;;;;;17.90;10.05;;;19.20;99.90;;;;;;5057108;28;20171;-85
2021/06/04 00:59:36;;;;;;;12.80;10.90;;;19.20;99.90;;;;;;5054764;28;20630;-84
2021/06/04 01:02:03;;;;;;;17.88;10.30;;;19.20;99.90;;;;;;5036762;28;20153;-85
2021/06/04 01:04:29;;;;;;;16.55;11.15;;;19.10;99.90;;;;;;5040582;28;20258;-85
2021/06/04 01:07:10;;;;;;;19.05;12.05;;;19.00;99.90;;;;;;5056565;28;20248;-85
2021/06/04 01:09:55;;;;;;;19.00;11.48;;;19.00;99.90;;;;;;5040991;28;20172;-85
2021/06/04 01:12:33;;;;;;;18.80;11.75;;;19.00;99.90;;;;;;5036646;28;20178;-85
2021/06/04 01:15:32;;;;;;;16.08;10.88;;;19.20;99.90;;;;;;5043699;28;20555;-85
2021/06/04 01:18:24;;;;;;;14.48;10.90;;;19.30;99.90;;;;;;5054017;28;20607;-85
2021/06/04 01:20:53;;;;;;;19.02;11.07;;;19.30;99.90;;;;;;5051618;28;20227;-84
2021/06/04 01:24:10;;;;;;;18.13;11.02;;;19.30;99.90;;;;;;5036697;28;20180;-85
2021/06/04 01:26:51;;;;;;;14.23;10.40;;;19.30;99.90;;;;;;4982884;28;20212;-85
2021/06/04 01:29:24;;;;;;;15.38;10.25;;;19.40;99.90;;;;;;5016290;28;20168;-85
2021/06/04 01:32:13;;;;;;;15.65;10.10;;;19.50;99.90;;;;;;5016554;28;20622;-84
2021/06/04 01:34:49;;;;;;;12.80;10.57;;;19.50;99.90;;;;;;5026644;28;20174;-85
2021/06/04 01:37:23;;;;;;;13.68;9.60;;;19.50;99.90;;;;;;5055921;28;20151;-85
2021/06/04 01:39:52;;;;;;;14.77;10.70;;;19.50;99.90;;;;;;5054214;28;20187;-85
2021/06/04 01:42:24;;;;;;;17.58;12.38;;;19.40;99.90;;;;;;5046626;28;20211;-84
2021/06/04 01:44:53;;;;;;;23.20;14.05;;;19.40;99.90;;;;;;5035693;28;20144;-85
2021/06/04 01:47:27;;;;;;;21.83;13.05;;;19.40;99.90;;;;;;5037973;28;20220;-84
2021/06/04 01:49:57;;;;;;;22.85;12.85;;;19.30;99.90;;;;;;5053169;28;20171;-85
2021/06/04 01:52:28;;;;;;;18.45;12.27;;;19.30;99.90;;;;;;5070986;28;20213;-85
2021/06/04 01:55:02;;;;;;;19.60;13.77;;;19.40;99.90;;;;;;5055467;28;20160;-84
2021/06/04 01:57:42;;;;;;;21.48;14.02;;;19.40;99.90;;;;;;5055828;28;20224;-86
2021/06/04 02:00:25;;;;;;;23.52;13.40;;;19.50;99.90;;;;;;5054914;28;20635;-84
2021/06/04 02:02:51;;;;;;;23.83;14.85;;;19.60;99.90;;;;;;5054480;28;20221;-85
2021/06/04 02:05:21;;;;;;;28.02;16.10;;;19.70;99.90;;;;;;5054393;28;20221;-85
2021/06/04 02:07:47;;;;;;;22.27;15.77;;;19.70;99.90;;;;;;5055183;28;20191;-85
2021/06/04 02:10:20;;;;;;;29.63;17.05;;;19.70;99.90;;;;;;5039687;28;20502;-84
2021/06/04 02:12:49;;;;;;;22.50;16.25;;;19.80;99.90;;;;;;5035526;28;20179;-85
2021/06/04 02:15:25;;;;;;;17.92;13.70;;;19.90;99.90;;;;;;5035418;28;20167;-85
2021/06/04 02:17:52;;;;;;;19.55;15.80;;;19.80;99.90;;;;;;5046797;28;20166;-84
2021/06/04 02:20:42;;;;;;;23.67;14.68;;;19.70;99.90;;;;;;5043048;28;20175;-85
2021/06/04 02:23:30;;;;;;;17.83;13.07;;;19.50;99.90;;;;;;5044585;28;20712;-85
2021/06/04 02:26:09;;;;;;;20.23;13.07;;;19.00;99.90;;;;;;5053813;28;20631;-83
2021/06/04 02:28:43;;;;;;;19.90;14.15;;;18.80;99.90;;;;;;5049004;28;20214;-85
2021/06/04 02:31:28;;;;;;;19.30;14.40;;;18.80;99.90;;;;;;5035068;28;20171;-84
2021/06/04 02:34:09;;;;;;;22.63;15.13;;;18.90;99.90;;;;;;5050362;28;20160;-83
2021/06/04 02:36:52;;;;;;;29.50;16.75;;;18.90;99.90;;;;;;5054302;28;20167;-84
2021/06/04 02:39:28;;;;;;;27.85;16.20;;;19.00;99.90;;;;;;5040150;28;20194;-85
2021/06/04 02:42:21;;;;;;;27.50;16.73;;;19.00;99.90;;;;;;5035217;28;20152;-85
2021/06/04 02:44:51;;;;;;;20.23;15.18;;;19.10;99.90;;;;;;5045975;28;20672;-84
2021/06/04 02:47:34;;;;;;;23.25;14.80;;;19.00;99.90;;;;;;5054328;28;20191;-84
2021/06/04 02:50:30;;;;;;;23.85;16.17;;;18.90;99.90;;;;;;5035071;28;20159;-85
2021/06/04 02:53:26;;;;;;;25.73;16.00;;;18.90;99.90;;;;;;5034689;28;20589;-84
2021/06/04 02:56:23;;;;;;;20.13;14.85;;;19.00;99.90;;;;;;5052205;28;20163;-85
2021/06/04 02:58:56;;;;;;;30.60;16.35;;;18.90;99.90;;;;;;5044791;28;20230;-85
2021/06/04 03:01:23;;;;;;;25.35;16.20;;;18.80;99.90;;;;;;5033189;28;20156;-84
2021/06/04 03:03:52;;;;;;;29.20;15.23;;;18.80;99.90;;;;;;5034480;28;20172;-85
2021/06/04 03:06:22;;;;;;;24.33;15.95;;;18.70;99.90;;;;;;5034291;28;20591;-84
2021/06/04 03:08:49;;;;;;;19.90;15.80;;;18.60;99.90;;;;;;5043373;28;20175;-85
2021/06/04 03:11:16;;;;;;;26.45;15.82;;;18.50;99.90;;;;;;5039661;28;20168;-85
2021/06/04 03:13:42;;;;;;;24.00;15.93;;;18.40;99.90;;;;;;5033014;28;20187;-84
2021/06/04 03:16:17;;;;;;;24.85;16.23;;;18.30;99.90;;;;;;5034319;28;20597;-84
2021/06/04 03:18:46;;;;;;;23.67;15.43;;;18.30;99.90;;;;;;5041870;28;20159;-84
2021/06/04 03:21:18;;;;;;;29.77;15.35;;;18.30;99.90;;;;;;5052909;28;20509;-84
2021/06/04 03:23:45;;;;;;;22.08;14.15;;;18.30;99.90;;;;;;5054152;28;20148;-84
2021/06/04 03:26:18;;;;;;;28.90;15.98;;;18.30;99.90;;;;;;5053982;28;20160;-84
2021/06/04 03:28:45;;;;;;;26.75;16.40;;;18.20;99.90;;;;;;5044322;28;20166;-84
2021/06/04 03:31:12;;;;;;;22.40;15.65;;;18.20;99.90;;;;;;5034008;28;20164;-84
2021/06/04 03:33:39;;;;;;;25.85;16.85;;;18.20;99.90;;;;;;5033849;28;20179;-84
2021/06/04 03:36:13;;;;;;;28.02;16.58;;;18.10;99.90;;;;;;5049346;28;20177;-84
2021/06/04 03:38:40;;;;;;;26.95;16.90;;;18.10;99.90;;;;;;5042053;28;20691;-85
2021/06/04 03:41:05;;;;;;;26.27;17.70;;;18.10;99.90;;;;;;5052822;28;20171;-85
2021/06/04 03:43:31;;;;;;;25.52;17.83;;;18.10;99.90;;;;;;5035991;28;20573;-84
2021/06/04 03:45:57;;;;;;;27.30;17.33;;;18.00;99.90;;;;;;5053701;28;20163;-84
2021/06/04 03:48:30;;;;;;;36.47;17.73;;;18.00;99.90;;;;;;5048014;28;20207;-84
2021/06/04 03:50:58;;;;;;;28.02;18.05;;;18.00;99.90;;;;;;5032670;28;20168;-84
2021/06/04 03:53:26;;;;;;;28.50;17.92;;;18.00;99.90;;;;;;5033787;28;20163;-84
2021/06/04 03:55:52;;;;;;;25.00;16.67;;;18.10;99.90;;;;;;5032542;28;20172;-85
2021/06/04 03:58:19;;;;;;;25.80;17.52;;;18.10;99.90;;;;;;5036178;28;20205;-84
2021/06/04 04:00:53;;;;;;;24.15;16.05;;;18.20;99.90;;;;;;5053250;28;20702;-84
2021/06/04 04:03:21;;;;;;;23.05;16.73;;;18.20;99.90;;;;;;5052264;28;20167;-85
2021/06/04 04:05:47;;;;;;;23.40;15.25;;;18.20;99.90;;;;;;5050190;28;20174;-84
2021/06/04 04:08:17;;;;;;;28.48;16.42;;;18.30;99.90;;;;;;5036205;28;20234;-84
2021/06/04 04:10:43;;;;;;;20.40;15.57;;;18.30;99.90;;;;;;5053417;28;20509;-84
2021/06/04 04:13:13;;;;;;;25.63;16.40;;;18.20;99.90;;;;;;5052325;28;20171;-85
2021/06/04 04:15:38;;;;;;;25.63;16.02;;;18.30;99.90;;;;;;5053355;28;20164;-84
2021/06/04 04:18:04;;;;;;;30.20;16.75;;;18.30;99.90;;;;;;5051620;28;20175;-84
2021/06/04 04:20:34;;;;;;;29.15;16.42;;;18.40;99.90;;;;;;5032165;28;20156;-85
2021/06/04 04:23:00;;;;;;;26.13;17.17;;;18.40;99.90;;;;;;5032168;28;20546;-84
2021/06/04 04:25:30;;;;;;;24.77;16.48;;;18.40;99.90;;;;;;5033403;28;20179;-84
2021/06/04 04:27:56;;;;;;;26.50;16.75;;;18.40;99.90;;;;;;5032091;28;20231;-84
2021/06/04 04:30:22;;;;;;;26.40;16.45;;;18.50;99.90;;;;;;5012531;28;20161;-85
2021/06/04 04:32:49;;;;;;;25.92;15.80;;;18.60;99.90;;;;;;5028875;28;20169;-83
2021/06/04 04:35:25;;;;;;;23.00;15.50;;;18.70;99.90;;;;;;5028840;28;20606;-84
2021/06/04 04:37:51;;;;;;;22.98;15.60;;;18.80;99.90;;;;;;5052976;28;20187;-84
2021/06/04 04:40:19;;;;;;;29.63;16.25;;;18.80;99.90;;;;;;5033496;28;20179;-84
2021/06/04 04:42:45;;;;;;;24.85;15.88;;;19.00;99.90;;;;;;5040835;28;20168;-84
2021/06/04 04:45:14;;;;;;;22.88;15.85;;;19.20;99.90;;;;;;5041364;28;20168;-84
2021/06/04 04:47:40;;;;;;;21.17;16.35;;;19.30;99.90;;;;;;5033184;28;20199;-84
2021/06/04 04:50:07;;;;;;;23.00;16.08;;;19.50;99.90;;;;;;5049225;28;20254;-84
2021/06/04 04:52:33;;;;;;;29.73;16.88;;;19.70;99.90;;;;;;5053257;28;20174;-85
2021/06/04 04:54:59;;;;;;;32.20;17.45;;;19.90;99.90;;;;;;5035241;28;20172;-84
2021/06/04 04:57:27;;;;;;;36.17;18.83;;;20.00;99.90;;;;;;5051245;28;20620;-84
2021/06/04 04:59:53;;;;;;;43.65;18.73;;;20.00;99.90;;;;;;5037819;28;20179;-84
2021/06/04 05:02:19;;;;;;;26.00;16.92;;;20.20;99.90;;;;;;5052203;28;20180;-84
2021/06/04 05:04:46;;;;;;;27.35;15.90;;;20.40;99.90;;;;;;5037559;28;20171;-85
2021/06/04 05:07:12;;;;;;;25.40;16.77;;;20.70;99.90;;;;;;5069954;28;20201;-83
2021/06/04 05:09:38;;;;;;;21.80;15.43;;;21.00;99.90;;;;;;5065373;28;20160;-83
2021/06/04 05:12:05;;;;;;;28.45;18.52;;;21.20;99.90;;;;;;5058939;28;20153;-83
2021/06/04 05:14:31;;;;;;;21.60;15.70;;;21.30;99.90;;;;;;5057108;28;20231;-84
2021/06/04 05:16:57;;;;;;;18.67;13.55;;;21.40;99.90;;;;;;5041660;28;20183;-84
2021/06/04 05:19:23;;;;;;;18.55;11.95;;;21.30;99.90;;;;;;5047243;28;20167;-84
2021/06/04 05:21:49;;;;;;;18.75;13.70;;;21.20;99.90;;;;;;5055224;28;20224;-83
2021/06/04 05:24:14;;;;;;;22.83;13.82;;;21.00;99.90;;;;;;5049012;28;20168;-84
2021/06/04 05:26:40;;;;;;;22.38;14.32;;;21.00;99.90;;;;;;5051904;28;20200;-84
2021/06/04 05:29:07;;;;;;;28.02;14.55;;;21.00;99.90;;;;;;5044623;28;20168;-84
2021/06/04 05:31:33;;;;;;;23.52;15.27;;;21.00;99.90;;;;;;5056227;28;20165;-84
2021/06/04 05:34:00;;;;;;;18.98;14.75;;;21.10;99.90;;;;;;5054914;28;20620;-84
2021/06/04 05:36:32;;;;;;;22.92;15.52;;;21.10;99.90;;;;;;5048957;28;20168;-83
2021/06/04 05:39:00;;;;;;;21.75;14.35;;;21.20;99.90;;;;;;5043083;28;20563;-84
2021/06/04 05:41:26;;;;;;;18.95;14.75;;;21.30;99.90;;;;;;5055932;28;20159;-83
2021/06/04 05:43:52;;;;;;;16.58;12.52;;;21.40;99.90;;;;;;5054799;28;20167;-84
2021/06/04 05:46:19;;;;;;;22.63;14.63;;;21.40;99.90;;;;;;5037773;28;20217;-84
2021/06/04 05:48:45;;;;;;;34.45;15.07;;;21.40;99.90;;;;;;5031047;28;20168;-84
2021/06/04 05:51:25;;;;;;;22.70;14.75;;;21.70;99.90;;;;;;5051239;28;20522;-85
2021/06/04 05:53:51;;;;;;;22.63;13.20;;;22.10;99.90;;;;;;5035750;28;20188;-84
2021/06/04 05:56:20;;;;;;;18.98;13.70;;;22.50;99.90;;;;;;5035842;28;20560;-84
2021/06/04 05:58:45;;;;;;;19.83;13.93;;;22.80;99.90;;;;;;5041767;28;20626;-85
2021/06/04 06:01:20;;;;;;;22.10;13.82;;;23.10;99.90;;;;;;5055419;28;20159;-84
2021/06/04 06:03:45;;;;;;;24.60;13.23;;;23.50;99.90;;;;;;5055685;28;20147;-84
2021/06/04 06:06:13;;;;;;;25.48;11.85;;;24.30;99.90;;;;;;5049522;28;20226;-84
2021/06/04 06:08:40;;;;;;;16.45;11.18;;;25.20;99.90;;;;;;5039448;28;20167;-83
2021/06/04 06:11:06;;;;;;;28.55;13.38;;;25.80;99.90;;;;;;5037595;28;20172;-84
2021/06/04 06:13:32;;;;;;;18.90;11.18;;;26.70;99.90;;;;;;5055368;28;20213;-85
2021/06/04 06:15:58;;;;;;;29.33;12.85;;;28.10;99.90;;;;;;5054957;28;20182;-83
2021/06/04 06:18:24;;;;;;;28.80;12.32;;;29.60;99.90;;;;;;5049118;28;20168;-83
2021/06/04 06:20:51;;;;;;;28.17;11.43;;;31.00;99.90;;;;;;5033953;28;20186;-85
2021/06/04 06:23:20;;;;;;;20.77;11.05;;;32.50;99.90;;;;;;5035234;28;20160;-84
2021/06/04 06:25:50;;;;;;;18.50;10.57;;;33.90;99.90;;;;;;5035185;28;20159;-83
2021/06/04 06:28:20;;;;;;;14.48;9.43;;;34.50;97.90;;;;;;5039309;28;20228;-82
2021/06/04 06:30:47;;;;;;;22.05;10.45;;;34.30;95.80;;;;;;5055010;28;20208;-82
2021/06/04 06:33:13;;;;;;;17.55;8.38;;;33.60;95.80;;;;;;5055023;28;20167;-84
2021/06/04 06:35:41;;;;;;;18.42;9.05;;;34.50;95.00;;;;;;5067444;28;20277;-83
2021/06/04 06:38:06;;;;;;;10.95;8.57;;;35.00;92.90;;;;;;5037624;28;20186;-83
2021/06/04 06:40:33;;;;;;;13.50;8.23;;;34.70;93.70;;;;;;5055187;28;20175;-83
2021/06/04 06:42:59;;;;;;;19.45;9.32;;;35.10;92.70;;;;;;5070392;28;20166;-82
2021/06/04 06:45:27;;;;;;;16.67;7.93;;;34.50;91.70;;;;;;5054730;28;20216;-82
2021/06/04 06:47:53;;;;;;;18.65;8.88;;;33.60;93.90;;;;;;5053258;28;20543;-82
2021/06/04 06:50:20;;;;;;;11.32;8.18;;;34.30;92.90;;;;;;5034564;28;20177;-83
2021/06/04 06:52:47;;;;;;;21.27;9.23;;;34.80;91.90;;;;;;5034667;28;20243;-83
2021/06/04 06:55:13;;;;;;;13.80;9.82;;;35.60;90.90;;;;;;5034604;28;20251;-83
2021/06/04 06:57:39;;;;;;;11.57;8.48;;;35.10;90.50;;;;;;5034590;28;20163;-82
2021/06/04 07:00:10;;;;;;;18.10;8.40;;;35.10;90.70;;;;;;5034991;28;20198;-83
2021/06/04 07:02:35;;;;;;;17.17;9.00;;;35.50;90.70;;;;;;5054713;28;20178;-83
2021/06/04 07:05:01;;;;;;;16.80;8.40;;;35.90;87.60;;;;;;5052959;28;20642;-82
2021/06/04 07:07:27;;;;;;;15.98;9.50;;;33.30;90.70;;;;;;5036974;28;20191;-83
2021/06/04 07:09:53;;;;;;;24.88;8.57;;;34.00;92.10;;;;;;5052202;28;20191;-83
2021/06/04 07:12:19;;;;;;;15.40;9.15;;;35.80;90.70;;;;;;5034157;28;20178;-82
2021/06/04 07:14:44;;;;;;;18.05;8.18;;;37.10;87.40;;;;;;5033820;28;20297;-83
2021/06/04 07:17:10;;;;;;;13.30;7.47;;;37.90;85.50;;;;;;5034209;28;20203;-81
2021/06/04 07:19:35;;;;;;;10.93;7.07;;;38.30;85.00;;;;;;5047751;28;20254;-83
2021/06/04 07:22:03;;;;;;;12.45;7.80;;;38.80;80.30;;;;;;5054097;28;20159;-85
2021/06/04 07:24:30;;;;;;;8.35;7.40;;;38.80;79.80;;;;;;5068946;28;20582;-84
2021/06/04 07:26:58;;;;;;;14.60;7.22;;;39.00;78.50;;;;;;5053687;28;20199;-84
2021/06/04 07:29:26;;;;;;;19.27;7.80;;;38.20;79.30;;;;;;5041021;28;20175;-83
2021/06/04 07:31:53;;;;;;;9.85;6.20;;;38.70;77.50;;;;;;5033864;28;20608;-83
2021/06/04 07:34:19;;;;;;;15.13;7.30;;;39.30;77.50;;;;;;5034012;28;20159;-84
2021/06/04 07:36:48;;;;;;;10.32;6.38;;;39.70;76.00;;;;;;5044517;28;20220;-82
2021/06/04 07:39:17;;;;;;;7.68;5.55;;;37.80;74.60;;;;;;5042815;28;20546;-82
2021/06/04 07:41:44;;;;;;;11.35;6.20;;;36.80;78.30;;;;;;5033559;28;20660;-83
2021/06/04 07:44:12;;;;;;;13.82;7.32;;;37.50;75.80;;;;;;5033792;28;20155;-82
2021/06/04 07:46:38;;;;;;;9.75;6.15;;;37.00;78.50;;;;;;5033610;28;20191;-83
2021/06/04 07:49:04;;;;;;;17.73;7.68;;;38.10;77.20;;;;;;5041683;28;20170;-83
2021/06/04 07:51:33;;;;;;;22.13;8.05;;;38.90;75.50;;;;;;5052502;28;20607;-84
2021/06/04 07:54:00;;;;;;;10.73;6.47;;;39.90;74.60;;;;;;5053620;28;20236;-83
2021/06/04 07:56:26;;;;;;;17.88;7.95;;;40.40;70.50;;;;;;5053341;28;20632;-82
2021/06/04 07:58:52;;;;;;;13.85;7.97;;;40.90;73.30;;;;;;5032405;28;20176;-82
2021/06/04 08:01:19;;;;;;;13.13;7.88;;;41.70;69.60;;;;;;5048829;28;20171;-83
2021/06/04 08:03:45;;;;;;;13.60;7.97;;;42.50;69.40;;;;;;5033873;28;20162;-83
2021/06/04 08:06:14;;;;;;;17.58;7.68;;;41.90;69.50;;;;;;5031668;28;20164;-81
2021/06/04 08:08:40;;;;;;;20.60;7.88;;;42.80;69.80;;;;;;5033033;28;20179;-82
2021/06/04 08:11:09;;;;;;;18.55;9.45;;;43.40;67.80;;;;;;5065490;28;20634;-82
2021/06/04 08:13:35;;;;;;;16.52;8.82;;;44.00;64.90;;;;;;5063719;28;20507;-82
2021/06/04 08:16:07;;;;;;;12.77;7.50;;;43.80;64.90;;;;;;5033348;28;20171;-82
2021/06/04 08:18:35;;;;;;;20.60;9.55;;;43.70;65.50;;;;;;5033307;28;20170;-82
2021/06/04 08:21:14;;;;;;;21.50;9.07;;;43.50;62.60;;;;;;5048479;28;20191;-82
2021/06/04 08:23:44;;;;;;;17.70;8.52;;;44.30;63.50;;;;;;5032880;28;20210;-82
2021/06/04 08:26:13;;;;;;;25.50;7.55;;;44.50;63.50;;;;;;5032744;28;20214;-82
2021/06/04 08:28:39;;;;;;;14.05;7.35;;;45.00;61.40;;;;;;5032937;28;20267;-82
2021/06/04 08:31:05;;;;;;;9.52;6.80;;;45.50;61.50;;;;;;5033536;28;20258;-81
2021/06/04 08:33:35;;;;;;;14.90;7.10;;;46.00;59.60;;;;;;5033265;28;20222;-81
2021/06/04 08:36:01;;;;;;;8.93;6.75;;;45.70;58.80;;;;;;5035495;28;20245;-82
2021/06/04 08:38:32;;;;;;;15.95;5.88;;;45.60;59.40;;;;;;5035299;28;20612;-83
2021/06/04 08:41:28;;;;;;;8.23;6.13;;;46.10;58.80;;;;;;5023012;28;20148;-82
2021/06/04 08:44:26;;;;;;;12.32;5.80;;;45.90;58.80;;;;;;5036592;28;20188;-82
2021/06/04 08:47:00;;;;;;;6.53;5.93;;;45.80;59.10;;;;;;5036747;28;20196;-82
2021/06/04 08:49:42;;;;;;;6.57;5.57;;;45.60;58.70;;;;;;5036856;28;20160;-81
2021/06/04 08:52:13;;;;;;;8.38;5.63;;;45.50;58.30;;;;;;5037026;28;20152;-83
2021/06/04 08:54:52;;;;;;;8.02;6.00;;;44.40;61.20;;;;;;5035274;28;20229;-83
2021/06/04 08:57:42;;;;;;;21.77;6.03;;;44.50;60.60;;;;;;5036710;28;20708;-82
2021/06/04 09:00:23;;;;;;;9.63;6.38;;;43.40;59.70;;;;;;5036867;28;20188;-81
2021/06/04 09:02:54;;;;;;;9.52;6.68;;;43.70;60.50;;;;;;5052172;28;20509;-81
2021/06/04 09:05:36;;;;;;;11.48;6.43;;;40.60;61.40;;;;;;5036523;28;20167;-82
2021/06/04 09:08:02;;;;;;;13.23;6.43;;;39.90;65.20;;;;;;5069573;28;20586;-82
2021/06/04 09:10:58;;;;;;;15.73;6.40;;;39.40;66.80;;;;;;5036496;28;20225;-82
2021/06/04 09:13:37;;;;;;;11.32;6.28;;;39.80;65.90;;;;;;5024319;28;20651;-82
2021/06/04 09:16:08;;;;;;;18.75;6.75;;;40.60;66.30;;;;;;5036539;28;20600;-82
2021/06/04 09:18:51;;;;;;;12.85;6.30;;;42.20;63.80;;;;;;5051042;28;20257;-82
2021/06/04 09:21:31;;;;;;;10.73;5.85;;;42.90;64.00;;;;;;5056672;28;20234;-83
2021/06/04 09:24:01;;;;;;;9.68;6.43;;;43.30;62.60;;;;;;5056121;28;20630;-82
2021/06/04 09:26:28;;;;;;;17.15;9.45;;;42.50;63.00;;;;;;5054958;28;20155;-83
2021/06/04 09:29:03;;;;;;;10.48;8.00;;;40.60;64.20;;;;;;5056266;28;20167;-82
2021/06/04 09:31:45;;;;;;;9.57;6.82;;;41.40;65.10;;;;;;5049115;28;20186;-82
2021/06/04 09:34:30;;;;;;;12.82;5.95;;;41.50;64.50;;;;;;5036025;28;20148;-83
2021/06/04 09:37:06;;;;;;;7.43;6.47;;;42.40;65.30;;;;;;5023244;28;20214;-83
2021/06/04 09:39:49;;;;;;;11.27;7.43;;;43.60;64.40;;;;;;5020145;28;20183;-82
2021/06/04 09:42:23;;;;;;;9.68;6.72;;;43.10;63.30;;;;;;5036303;28;20662;-84
2021/06/04 09:45:11;;;;;;;14.30;7.25;;;43.80;61.80;;;;;;5035928;28;20173;-84
2021/06/04 09:47:41;;;;;;;16.30;8.68;;;42.40;64.70;;;;;;5045102;28;20195;-85
2021/06/04 09:50:23;;;;;;;7.43;6.63;;;41.70;63.60;;;;;;5055874;28;20607;-86
2021/06/04 09:53:06;;;;;;;13.02;7.40;;;41.10;65.30;;;;;;5055773;28;20210;-85
2021/06/04 09:55:42;;;;;;;9.45;7.03;;;41.70;67.40;;;;;;5040758;28;20178;-86
2021/06/04 09:58:14;;;;;;;14.77;8.32;;;41.20;65.60;;;;;;5035697;28;20171;-86
2021/06/04 10:00:44;;;;;;;10.85;8.07;;;37.30;71.30;;;;;;5035708;28;20152;-86
2021/06/04 10:03:28;;;;;;;11.23;7.07;;;37.50;73.10;;;;;;5035658;28;20217;-85
2021/06/04 10:06:06;;;;;;;16.98;9.60;;;39.00;72.90;;;;;;5051411;28;20170;-86
2021/06/04 10:08:44;;;;;;;14.18;8.57;;;40.70;67.50;;;;;;5059520;28;20693;-86
2021/06/04 10:11:29;;;;;;;12.40;8.48;;;41.70;66.40;;;;;;5035558;28;20600;-85
2021/06/04 10:14:33;;;;;;;7.60;6.43;;;41.90;65.90;;;;;;5033956;28;20269;-86
2021/06/04 10:17:38;;;;;;;11.45;8.50;;;42.30;67.80;;;;;;5034199;28;20187;-86
2021/06/04 10:20:30;;;;;;;10.07;8.90;;;44.10;65.30;;;;;;5037524;28;20171;-85
2021/06/04 10:23:36;;;;;;;13.88;8.95;;;44.60;63.60;;;;;;5055489;28;20151;-84
2021/06/04 10:26:24;;;;;;;16.27;9.10;;;41.60;65.70;;;;;;5053111;28;20600;-84
2021/06/04 10:29:13;;;;;;;9.52;7.20;;;42.20;66.20;;;;;;5055244;28;20166;-85
2021/06/04 10:32:06;;;;;;;10.65;9.13;;;42.50;65.70;;;;;;5054875;28;20631;-84
2021/06/04 10:35:01;;;;;;;12.35;8.63;;;40.90;67.00;;;;;;5054910;28;20167;-85
2021/06/04 10:37:51;;;;;;;14.05;10.68;;;39.30;70.80;;;;;;5050929;28;20171;-84
2021/06/04 10:40:35;;;;;;;10.77;9.70;;;39.70;69.40;;;;;;5035069;28;20179;-84
2021/06/04 10:43:19;;;;;;;19.65;9.30;;;39.00;71.40;;;;;;5034933;28;20198;-83
2021/06/04 10:46:08;;;;;;;23.75;10.82;;;37.60;74.50;;;;;;5050199;28;20171;-86
2021/06/04 10:49:11;;;;;;;16.05;10.85;;;37.60;73.80;;;;;;5047105;28;20186;-83
2021/06/04 10:52:05;;;;;;;24.92;11.00;;;38.10;73.40;;;;;;5054268;28;20166;-82
2021/06/04 10:54:49;;;;;;;15.40;10.02;;;36.60;75.70;;;;;;5054475;28;20259;-83
2021/06/04 10:57:43;;;;;;;18.90;12.35;;;35.60;79.20;;;;;;5051824;28;20155;-83
2021/06/04 11:00:16;;;;;;;21.45;10.05;;;34.30;79.50;;;;;;5014874;28;20183;-82
2021/06/04 11:03:03;;;;;;;17.45;11.40;;;33.60;84.60;;;;;;5014758;28;20156;-82
2021/06/04 11:05:37;;;;;;;17.75;11.07;;;32.50;84.80;;;;;;5015025;28;20145;-81
2021/06/04 11:08:21;;;;;;;18.23;11.77;;;32.20;87.40;;;;;;5038253;28;20285;-82
2021/06/04 11:11:01;;;;;;;12.50;10.50;;;33.20;86.80;;;;;;5034351;28;20159;-82
2021/06/04 11:13:46;;;;;;;13.32;11.43;;;36.30;83.40;;;;;;5034161;28;20140;-81
2021/06/04 11:16:22;;;;;;;12.07;9.60;;;37.00;77.30;;;;;;5034167;28;20143;-80
2021/06/04 11:19:26;;;;;;;20.70;11.45;;;36.00;80.20;;;;;;5063077;28;20174;-84
2021/06/04 11:22:13;;;;;;;13.05;9.93;;;34.40;81.90;;;;;;5058647;28;20163;-82
2021/06/04 11:25:02;;;;;;;13.90;11.05;;;32.80;86.40;;;;;;5034159;28;20160;-82
2021/06/04 11:27:39;;;;;;;11.70;10.55;;;31.70;88.80;;;;;;5036214;28;20628;-83
2021/06/04 11:30:28;;;;;;;18.80;11.80;;;31.00;90.90;;;;;;5052319;28;20162;-84
2021/06/04 11:33:11;;;;;;;16.25;10.88;;;30.00;91.90;;;;;;5054254;28;20148;-83
2021/06/04 11:35:49;;;;;;;15.52;10.55;;;29.80;92.20;;;;;;5052606;28;20162;-81
2021/06/04 11:38:33;;;;;;;28.50;14.00;;;29.70;93.00;;;;;;5044642;28;20178;-82
2021/06/04 11:41:06;;;;;;;19.65;12.18;;;29.40;93.40;;;;;;5033884;28;20193;-81
2021/06/04 11:43:37;;;;;;;23.33;14.23;;;29.20;93.80;;;;;;5033714;28;20604;-82
2021/06/04 11:46:30;;;;;;;22.40;13.30;;;29.20;94.10;;;;;;5051692;28;20521;-81
2021/06/04 11:49:14;;;;;;;14.75;12.27;;;29.00;94.70;;;;;;5052888;28;20172;-82
2021/06/04 11:51:51;;;;;;;19.02;11.82;;;29.00;95.30;;;;;;5053739;28;20634;-81
2021/06/04 11:54:29;;;;;;;18.30;11.88;;;28.90;95.90;;;;;;5052443;28;20622;-80
2021/06/04 11:57:05;;;;;;;22.40;12.10;;;28.60;96.50;;;;;;5053416;28;20185;-83
2021/06/04 11:59:46;;;;;;;22.77;12.45;;;28.40;97.50;;;;;;5034508;28;20218;-82
2021/06/04 12:02:31;;;;;;;23.35;12.13;;;28.20;97.40;;;;;;5033551;28;20159;-82
2021/06/04 12:05:17;;;;;;;14.95;11.05;;;28.00;98.40;;;;;;5033787;28;20197;-82
2021/06/04 12:08:05;;;;;;;18.60;12.05;;;27.90;99.00;;;;;;5014572;28;20211;-82
2021/06/04 12:10:49;;;;;;;15.88;11.05;;;27.90;99.70;;;;;;5039393;28;20175;-84
2021/06/04 12:13:41;;;;;;;17.63;12.00;;;27.80;99.90;;;;;;5040589;28;20163;-88
2021/06/04 12:18:59;;;;;;;22.48;15.68;;;27.60;99.90;;;;;;5052759;28;20183;-89
2021/06/04 12:21:41;;;;;;;28.38;18.42;;;27.20;99.90;;;;;;5060927;28;20212;-90
2021/06/04 12:24:26;;;;;;;26.27;13.63;;;26.70;99.90;;;;;;5061615;28;20167;-89
2021/06/04 12:26:57;;;;;;;17.83;14.60;;;25.90;99.90;;;;;;5050299;28;20211;-90
2021/06/04 12:29:23;;;;;;;15.82;9.25;;;25.50;99.90;;;;;;5057747;28;20555;-90
2021/06/04 12:32:04;;;;;;;10.45;5.45;;;25.10;99.90;;;;;;5042403;28;20214;-90
2021/06/04 12:34:47;;;;;;;15.35;6.55;;;24.70;99.90;;;;;;5042629;28;20207;-86
2021/06/04 12:37:22;;;;;;;12.38;4.38;;;24.00;99.90;;;;;;5054900;28;20156;-89
2021/06/04 12:39:53;;;;;;;18.88;3.40;;;23.00;99.90;;;;;;5069560;28;20191;-88
2021/06/04 12:42:25;;;;;;;26.92;5.22;;;22.10;99.90;;;;;;5058364;28;20195;-89
2021/06/04 12:45:02;;;;;;;13.60;3.67;;;20.60;99.90;;;;;;5078587;28;20168;-88
2021/06/04 12:47:37;;;;;;;30.58;4.55;;;19.20;99.90;;;;;;5078266;28;20230;-88
2021/06/04 12:50:08;;;;;;;16.95;3.83;;;18.80;99.90;;;;;;5063186;28;20552;-79
2021/06/04 12:52:34;;;;;;;22.00;4.90;;;18.60;99.90;;;;;;5059681;28;20171;-78
2021/06/04 12:55:21;;;;;;;11.90;4.15;;;18.40;99.90;;;;;;5057581;28;20159;-81
2021/06/04 12:57:47;;;;;;;5.35;3.28;;;17.90;99.90;;;;;;5042492;28;20199;-80
2021/06/04 13:00:19;;;;;;;8.20;2.63;;;17.30;99.90;;;;;;5058169;28;20210;-79
2021/06/04 13:02:45;;;;;;;11.65;2.92;;;16.70;99.90;;;;;;5058358;28;20191;-80
2021/06/04 13:05:11;;;;;;;4.13;2.40;;;16.30;99.90;;;;;;5059832;28;20529;-84
2021/06/04 13:07:40;;;;;;;2.97;2.22;;;16.10;99.90;;;;;;5041295;28;20226;-81